نيويورك, NY

01:46 AM EDT on ابریل 01, 2015 (GMT -0400)
Flatiron | | Change Station
CLOSE
Current Station
Personal Weather Stations
Location: New York, NY
Elevation: 207 ft
Nearby Weather Stations

Elev 207 ft 40.74 °N, 73.99 °W | Updated 14 seconds ago

Clear
صافية
37.0 °F
Feels Like 37 °F
N
2.0
ريح متغير ريح from NNW
Gusts 4.9 mph

هذا اليوم
High -- | Low -- °F
--% Chance of Precip.
Yesterday
High -- | Low -- °F
Precip. -- في
6:39 AM 7:20 PM
الأحدب الأول, 91% visible
الضغط 29.82 في
وضوح الرؤية 10.0 أميال
سحابات صافية
رياح باردة 37 °F
نقطة الندى 28 °F
الرطوبة 69%
Rainfall 0.00 في
عمق الثلج Not available.
الأشعة فوق البنفسجية 0.0 out of 12
Pollen 6.40 out of 12
جودة الهواء Not available.
Flu Activity Not available.
METAR KNYC 010451Z AUTO 30005KT 10SM CLR 02/M01 A2984 RMK AO2 SLP097 T00171006 400830017 $

More Conditions Fewer Conditions

الضغط 29.82 في
وضوح الرؤية 10.0 أميال
سحابات صافية
رياح باردة 37 °F
نقطة الندى 28 °F
الرطوبة 69%
Rainfall 0.00 في
عمق الثلج Not available.
الأشعة فوق البنفسجية 0.0 out of 12
Pollen 6.40 out of 12
جودة الهواء Not available.
Flu Activity Not available.
METAR KNYC 010451Z AUTO 30005KT 10SM CLR 02/M01 A2984 RMK AO2 SLP097 T00171006 400830017 $

More Conditions Fewer Conditions

10-Day Weather Forecast

Almanac

علم الفلك

Apr. 01, 2015 Rise Set
Actual Time
Civil Twilight
Nautical Twilight
Astronomical Twilight
قمر
Length Of Visible Light
طول الیوم
Tomorrow will be .
, % of the Moon is Illuminated

Today's Extremes

State Highs State Lows

Community

WunderPhotos

Upload Photos

1,809,919 photos uploaded!

WunderBlogs® & News

Nearby

جودة الهواء

  جودة الهواء AQ Index Pollutant
Not available.

عمق الثلج

Station Depth Elevation

Earthquake Activity

City Distance Mag. Time & Date
Minimum magnitude displayed is 2.5.

Coastal Water Temperatures

مكان درجات الحرارة

Stations

Nearby Weather Stations

Station Location الحرارة رياح باردة نقطة الندى الرطوبة ريح Precip. Elev تحديث Type